Hillsborough, California
Current Conditions -  °F | °C
As of 8:56 AM on Friday 28 Nov 2014 (Local Time) from KSFO Reporting Station
Haze Haze  
Wind Chill: 50°   Ceiling: Unl
Heat Index: 50°   Visibility: 1mi
Dew Point: 50°   Wind: 6mph
Humidity: 100%   Direction: 110°ESE
Pressure: 30.04"   Gusts: NA
Location:  37.58°N, 122.35°W
Report Text: KSFO 281656Z 11005KT 1SM R28R/1600VP6000FT BR SCT001 SCT005 10/10 A3004 RMK AO2 SLP171 VIS E 1/2 T01000100 $
Loading
Personal Weather Stations






























Interactive Weather Map New forecast layout! Learn more

10-Day Weather Forecast

Advertisements
Track Severe Weather on mobile